createdAt,value
2018-12-18T00:00:49.606Z,19.17
2018-12-18T00:04:57.555Z,18.23
2018-12-18T00:09:09.506Z,18.77
2018-12-18T00:13:17.162Z,19.12
2018-12-18T00:17:22.932Z,18.85
2018-12-18T00:21:29.755Z,19.82
2018-12-18T00:25:35.913Z,20.45
2018-12-18T00:29:42.979Z,20.23
2018-12-18T00:33:49.135Z,18.87
2018-12-18T00:37:55.067Z,18.70
2018-12-18T00:42:03.514Z,26.97
2018-12-18T00:46:09.674Z,18.15
2018-12-18T00:50:17.242Z,18.67
2018-12-18T00:54:23.286Z,19.05
2018-12-18T00:58:29.080Z,19.37
2018-12-18T01:02:35.056Z,19.65
2018-12-18T01:06:42.871Z,18.80
2018-12-18T01:10:49.214Z,19.98
2018-12-18T01:14:55.288Z,19.77
2018-12-18T01:19:01.442Z,21.60
2018-12-18T01:23:07.952Z,20.70
2018-12-18T01:27:14.723Z,21.70
2018-12-18T01:31:20.636Z,20.57
2018-12-18T01:35:27.538Z,22.05
2018-12-18T01:39:34.471Z,23.27
2018-12-18T01:43:40.491Z,22.90
2018-12-18T01:47:47.227Z,23.90
2018-12-18T01:51:53.319Z,25.48
2018-12-18T01:55:59.005Z,24.35
2018-12-18T02:00:05.511Z,24.63
2018-12-18T02:04:13.550Z,22.98
2018-12-18T02:08:19.338Z,22.80
2018-12-18T02:12:25.197Z,22.90
2018-12-18T02:16:31.409Z,22.70
2018-12-18T02:20:37.688Z,23.52
2018-12-18T02:24:43.678Z,23.57
2018-12-18T02:28:49.821Z,24.35
2018-12-18T02:32:57.609Z,24.32
2018-12-18T02:37:03.720Z,24.85
2018-12-18T02:41:10.699Z,24.65
2018-12-18T02:45:16.902Z,26.15
2018-12-18T02:49:23.914Z,24.43
2018-12-18T02:53:30.029Z,27.15
2018-12-18T02:57:36.029Z,26.73
2018-12-18T03:01:42.619Z,25.48
2018-12-18T03:05:48.615Z,25.45
2018-12-18T03:09:54.830Z,23.95
2018-12-18T03:14:01.676Z,24.77
2018-12-18T03:18:07.614Z,25.25
2018-12-18T03:22:13.447Z,26.35
2018-12-18T03:26:19.424Z,24.63
2018-12-18T03:30:26.118Z,26.48
2018-12-18T03:34:31.959Z,25.90
2018-12-18T03:38:39.091Z,24.77
2018-12-18T03:42:45.566Z,24.90
2018-12-18T03:46:51.523Z,26.35
2018-12-18T03:50:57.547Z,27.20
2018-12-18T03:55:04.392Z,29.15
2018-12-18T03:59:10.230Z,27.27
2018-12-18T04:03:16.315Z,28.73
2018-12-18T04:07:22.344Z,29.67
2018-12-18T04:11:28.349Z,29.65
2018-12-18T04:15:34.604Z,28.27
2018-12-18T04:19:42.067Z,29.90
2018-12-18T04:23:48.262Z,31.25
2018-12-18T04:27:54.092Z,29.65
2018-12-18T04:31:59.996Z,30.77
2018-12-18T04:36:06.014Z,30.32
2018-12-18T04:40:12.185Z,31.80
2018-12-18T04:44:18.023Z,30.35
2018-12-18T04:48:24.045Z,33.30
2018-12-18T04:52:29.890Z,32.42
2018-12-18T04:56:35.908Z,30.72
2018-12-18T05:00:42.128Z,32.15
2018-12-18T05:04:50.412Z,33.20
2018-12-18T05:08:56.468Z,32.28
2018-12-18T05:13:03.107Z,33.90
2018-12-18T05:17:08.911Z,34.25
2018-12-18T05:21:14.821Z,34.48
2018-12-18T05:25:20.730Z,35.40
2018-12-18T05:29:27.391Z,33.73
2018-12-18T05:33:33.277Z,34.08
2018-12-18T05:37:39.462Z,32.73
2018-12-18T05:41:45.412Z,31.73
2018-12-18T05:45:52.092Z,30.10
2018-12-18T05:49:58.009Z,29.98
2018-12-18T05:54:03.894Z,28.45
2018-12-18T05:58:09.552Z,28.15
2018-12-18T06:02:15.648Z,29.92
2018-12-18T06:06:21.276Z,29.48
2018-12-18T06:10:27.249Z,28.80
2018-12-18T06:14:33.136Z,27.25
2018-12-18T06:18:39.116Z,29.63
2018-12-18T06:22:45.214Z,31.45
2018-12-18T06:26:51.062Z,31.90
2018-12-18T06:30:57.417Z,31.05
2018-12-18T06:35:10.037Z,29.87
2018-12-18T06:39:12.314Z,27.22
2018-12-18T06:43:19.454Z,26.70
2018-12-18T06:47:25.061Z,27.40
2018-12-18T06:51:31.125Z,25.80
2018-12-18T06:55:38.016Z,26.17
2018-12-18T06:59:44.200Z,25.52
2018-12-18T07:03:51.826Z,25.90
2018-12-18T07:07:57.834Z,23.47
2018-12-18T07:12:03.824Z,22.90
2018-12-18T07:16:09.660Z,28.15
2018-12-18T07:20:15.382Z,25.20
2018-12-18T07:24:21.184Z,24.15
2018-12-18T07:28:26.739Z,23.95
2018-12-18T07:32:32.534Z,22.82
2018-12-18T07:36:38.138Z,22.80
2018-12-18T07:40:43.739Z,21.60
2018-12-18T07:44:49.428Z,23.62
2018-12-18T07:48:55.113Z,23.55
2018-12-18T07:53:00.629Z,24.40
2018-12-18T07:57:06.241Z,23.70
2018-12-18T08:01:12.431Z,24.25
2018-12-18T08:05:18.033Z,24.72
2018-12-18T08:09:23.761Z,25.27
2018-12-18T08:13:30.204Z,24.90
2018-12-18T08:17:37.312Z,23.25
2018-12-18T08:21:43.701Z,23.02
2018-12-18T08:25:49.462Z,23.65
2018-12-18T08:29:56.018Z,23.77
2018-12-18T08:34:04.265Z,21.12
2018-12-18T08:38:10.376Z,22.75
2018-12-18T08:42:16.130Z,22.73
2018-12-18T08:46:22.291Z,21.97
2018-12-18T08:50:28.344Z,22.20
2018-12-18T08:54:34.165Z,24.92
2018-12-18T08:58:39.878Z,27.48
2018-12-18T09:02:45.527Z,25.75
2018-12-18T09:06:51.376Z,23.67
2018-12-18T09:10:57.452Z,24.35
2018-12-18T09:15:07.091Z,23.02
2018-12-18T09:19:12.781Z,22.70
2018-12-18T09:23:19.388Z,23.40
2018-12-18T09:27:26.358Z,23.30
2018-12-18T09:31:32.151Z,24.32
2018-12-18T09:35:38.002Z,22.52
2018-12-18T09:39:44.067Z,21.20
2018-12-18T09:43:56.271Z,21.65
2018-12-18T09:48:02.976Z,21.37
2018-12-18T09:52:08.640Z,18.65
2018-12-18T09:56:14.401Z,15.38
2018-12-18T10:00:20.488Z,14.13
2018-12-18T10:04:26.203Z,14.53
2018-12-18T10:08:32.182Z,14.70
2018-12-18T10:12:46.330Z,14.85
2018-12-18T10:16:52.595Z,12.58
2018-12-18T10:20:58.360Z,13.88
2018-12-18T10:25:04.392Z,13.15
2018-12-18T10:29:11.855Z,12.75
2018-12-18T10:33:17.504Z,11.05
2018-12-18T10:37:23.183Z,10.63
2018-12-18T10:41:28.916Z,10.28
2018-12-18T10:45:36.371Z,10.20
2018-12-18T10:49:42.232Z,9.90
2018-12-18T10:53:47.907Z,9.58
2018-12-18T10:57:53.566Z,9.28
2018-12-18T11:02:06.512Z,10.82
2018-12-18T11:06:12.754Z,10.53
2018-12-18T11:10:19.429Z,10.95
2018-12-18T11:14:25.155Z,10.53
2018-12-18T11:18:31.052Z,9.75
2018-12-18T11:22:36.615Z,9.00
2018-12-18T11:26:42.531Z,9.57
2018-12-18T11:30:48.225Z,9.03
2018-12-18T11:34:53.949Z,8.23
2018-12-18T11:38:59.563Z,9.00
2018-12-18T11:43:05.181Z,9.18
2018-12-18T11:47:10.846Z,8.98
2018-12-18T11:51:16.766Z,8.30
2018-12-18T11:55:22.472Z,8.03
2018-12-18T11:59:28.163Z,6.58
2018-12-18T12:03:34.951Z,6.85
2018-12-18T12:07:42.712Z,6.87
2018-12-18T12:11:48.568Z,6.78
2018-12-18T12:15:54.399Z,7.05
2018-12-18T12:20:00.235Z,6.45
2018-12-18T12:24:07.386Z,6.75
2018-12-18T12:28:13.286Z,6.47
2018-12-18T12:32:18.934Z,6.37
2018-12-18T12:40:41.332Z,4.40
2018-12-18T12:44:47.532Z,5.87
2018-12-18T12:48:55.374Z,5.92
2018-12-18T12:53:02.115Z,5.65
2018-12-18T12:57:10.291Z,5.67
2018-12-18T13:01:16.447Z,4.83
2018-12-18T13:05:22.616Z,6.20
2018-12-18T13:09:29.118Z,5.60
2018-12-18T13:13:34.777Z,6.00
2018-12-18T13:17:40.952Z,5.53
2018-12-18T13:21:46.756Z,7.78
2018-12-18T13:25:52.766Z,6.80
2018-12-18T13:29:59.040Z,6.25
2018-12-18T13:34:04.649Z,6.65
2018-12-18T13:38:10.679Z,6.15
2018-12-18T13:42:16.507Z,5.15
2018-12-18T13:46:22.368Z,5.45
2018-12-18T13:50:28.637Z,5.97
2018-12-18T13:54:34.372Z,5.83
2018-12-18T13:58:40.055Z,6.05
2018-12-18T14:02:45.611Z,5.40
2018-12-18T14:06:51.207Z,5.60
2018-12-18T14:10:57.758Z,5.80
2018-12-18T14:15:03.997Z,5.53
2018-12-18T14:19:09.641Z,5.05
2018-12-18T14:23:15.327Z,5.00
2018-12-18T14:27:21.102Z,5.08
2018-12-18T14:31:26.702Z,5.35
2018-12-18T14:35:32.359Z,4.87
2018-12-18T14:39:37.976Z,4.80
2018-12-18T14:43:43.679Z,5.00
2018-12-18T14:47:49.315Z,5.15
2018-12-18T14:51:54.912Z,4.65
2018-12-18T14:56:00.508Z,4.28
2018-12-18T15:00:07.683Z,4.87
2018-12-18T15:04:13.579Z,5.50
2018-12-18T15:08:19.844Z,5.53
2018-12-18T15:12:25.515Z,5.78
2018-12-18T15:16:31.106Z,5.83
2018-12-18T15:20:37.556Z,5.75
2018-12-18T15:24:43.244Z,6.25
2018-12-18T15:28:49.000Z,6.20
2018-12-18T15:32:58.591Z,6.95
2018-12-18T15:37:09.600Z,7.10
2018-12-18T15:41:12.632Z,7.53
2018-12-18T15:45:18.197Z,6.70
2018-12-18T15:49:24.727Z,7.10
2018-12-18T15:53:32.244Z,7.35
2018-12-18T15:57:39.218Z,7.45
2018-12-18T16:01:45.186Z,7.65
2018-12-18T16:05:52.067Z,6.60
2018-12-18T16:09:58.352Z,6.70
2018-12-18T16:14:04.665Z,6.60
2018-12-18T16:18:10.884Z,8.55
2018-12-18T16:22:19.002Z,7.10
2018-12-18T16:26:25.237Z,9.90
2018-12-18T16:30:31.637Z,7.10
2018-12-18T16:34:40.254Z,6.78
2018-12-18T16:38:46.806Z,6.90
2018-12-18T16:42:53.049Z,7.70
2018-12-18T16:46:59.855Z,7.83
2018-12-18T16:51:07.620Z,7.45
2018-12-18T16:55:13.911Z,8.40
2018-12-18T17:04:12.389Z,7.97
2018-12-18T17:08:18.915Z,8.23
2018-12-18T17:12:25.436Z,8.33
2018-12-18T17:16:31.684Z,7.87
2018-12-18T17:20:37.408Z,8.50
2018-12-18T17:29:01.792Z,9.50
2018-12-18T17:33:08.206Z,10.32
2018-12-18T17:37:14.219Z,8.60
2018-12-18T17:41:20.535Z,9.05
2018-12-18T17:45:26.675Z,8.88
2018-12-18T17:49:32.631Z,8.68
2018-12-18T17:53:38.916Z,9.48
2018-12-18T17:57:47.884Z,7.90
2018-12-18T18:06:41.414Z,8.83
2018-12-18T18:10:48.443Z,9.20
2018-12-18T18:14:56.827Z,10.33
2018-12-18T18:19:03.807Z,9.60
2018-12-18T18:23:10.242Z,9.53
2018-12-18T18:27:16.561Z,9.13
2018-12-18T18:31:22.839Z,9.03
2018-12-18T18:35:29.215Z,9.65
2018-12-18T18:39:35.740Z,10.93
2018-12-18T18:43:41.853Z,18.27
2018-12-18T18:47:48.120Z,11.53
2018-12-18T18:51:54.323Z,9.98
2018-12-18T18:56:00.617Z,11.65
2018-12-18T19:00:08.788Z,10.65
2018-12-18T19:04:15.682Z,10.60
2018-12-18T19:08:21.648Z,10.13
2018-12-18T19:12:28.283Z,9.75
2018-12-18T19:16:34.600Z,10.45
2018-12-18T19:20:40.867Z,9.93
2018-12-18T19:24:46.912Z,9.60
2018-12-18T19:28:52.870Z,10.23
2018-12-18T19:33:00.211Z,9.65
2018-12-18T19:37:06.763Z,9.80
2018-12-18T19:41:16.573Z,10.08
2018-12-18T19:45:23.343Z,9.38
2018-12-18T19:49:30.789Z,8.73
2018-12-18T19:53:37.478Z,8.68
2018-12-18T19:57:46.459Z,8.10
2018-12-18T20:01:53.956Z,8.98
2018-12-18T20:10:27.807Z,9.30
2018-12-18T20:14:35.416Z,9.60
2018-12-18T20:18:43.985Z,10.10
2018-12-18T20:22:53.543Z,10.47
2018-12-18T20:27:01.530Z,11.22
2018-12-18T20:31:07.791Z,11.28
2018-12-18T20:35:14.581Z,12.37
2018-12-18T20:39:20.629Z,13.25
2018-12-18T20:43:26.635Z,12.43
2018-12-18T20:47:32.946Z,13.30
2018-12-18T20:51:39.102Z,14.05
2018-12-18T20:55:45.939Z,14.15
2018-12-18T20:59:52.162Z,14.83
2018-12-18T21:04:00.207Z,14.68
2018-12-18T21:08:09.628Z,14.53
2018-12-18T21:12:15.746Z,16.17
2018-12-18T21:16:22.754Z,16.80
2018-12-18T21:20:29.458Z,17.65
2018-12-18T21:24:36.324Z,17.42
2018-12-18T21:28:43.488Z,16.60
2018-12-18T21:32:50.754Z,17.73
2018-12-18T21:36:58.050Z,19.20
2018-12-18T21:41:04.969Z,19.17
2018-12-18T21:45:11.786Z,19.12
2018-12-18T21:49:19.750Z,20.37
2018-12-18T21:53:25.942Z,20.32
2018-12-18T21:57:32.441Z,20.40
2018-12-18T22:01:38.561Z,20.48
2018-12-18T22:05:49.836Z,20.12
2018-12-18T22:09:57.804Z,19.02
2018-12-18T22:14:07.257Z,21.65
2018-12-18T22:18:15.360Z,21.65
2018-12-18T22:22:24.087Z,22.17
2018-12-18T22:26:31.289Z,21.82
2018-12-18T22:30:39.409Z,20.70
2018-12-18T22:34:45.438Z,21.82
2018-12-18T22:38:52.371Z,20.48
2018-12-18T22:42:58.707Z,22.45
2018-12-18T22:47:04.887Z,19.87
2018-12-18T22:51:10.954Z,21.48
2018-12-18T22:55:18.271Z,22.93
2018-12-18T22:59:24.691Z,24.18
2018-12-18T23:03:30.525Z,22.02
2018-12-18T23:07:37.674Z,22.50
2018-12-18T23:11:44.268Z,21.97
2018-12-18T23:15:53.843Z,22.67
2018-12-18T23:19:59.787Z,21.75
2018-12-18T23:24:05.779Z,22.25
2018-12-18T23:28:11.980Z,23.35
2018-12-18T23:32:18.896Z,23.55
2018-12-18T23:36:24.964Z,22.00
2018-12-18T23:40:32.439Z,23.00
2018-12-18T23:44:38.428Z,22.65
2018-12-18T23:48:44.408Z,23.80
2018-12-18T23:52:50.345Z,23.27
2018-12-18T23:56:56.329Z,23.73
